createdAt,value
2018-12-20T00:01:39.669Z,18.17
2018-12-20T00:04:10.463Z,18.75
2018-12-20T00:06:41.326Z,17.87
2018-12-20T00:09:12.319Z,17.57
2018-12-20T00:11:43.158Z,17.37
2018-12-20T00:14:15.174Z,17.20
2018-12-20T00:16:47.741Z,16.30
2018-12-20T00:19:18.393Z,17.70
2018-12-20T00:21:49.497Z,16.65
2018-12-20T00:24:20.200Z,16.55
2018-12-20T00:26:51.380Z,17.35
2018-12-20T00:29:22.137Z,17.37
2018-12-20T00:31:52.751Z,18.12
2018-12-20T00:34:23.755Z,18.20
2018-12-20T00:36:54.438Z,17.82
2018-12-20T00:39:24.988Z,17.12
2018-12-20T00:41:55.569Z,17.00
2018-12-20T00:44:27.007Z,16.20
2018-12-20T00:46:57.861Z,16.57
2018-12-20T00:49:28.726Z,18.55
2018-12-20T00:51:59.690Z,17.52
2018-12-20T00:54:31.075Z,16.90
2018-12-20T00:57:02.907Z,17.20
2018-12-20T00:59:33.797Z,17.57
2018-12-20T01:02:05.642Z,18.12
2018-12-20T01:04:36.665Z,17.87
2018-12-20T01:07:08.299Z,18.50
2018-12-20T01:09:38.904Z,18.00
2018-12-20T01:12:09.504Z,18.55
2018-12-20T01:14:45.329Z,18.00
2018-12-20T01:17:13.533Z,18.30
2018-12-20T01:19:44.129Z,18.17
2018-12-20T01:22:14.951Z,17.98
2018-12-20T01:24:45.705Z,17.95
2018-12-20T01:27:16.838Z,18.03
2018-12-20T01:29:47.599Z,18.00
2018-12-20T01:32:18.436Z,15.83
2018-12-20T01:34:49.209Z,17.73
2018-12-20T01:37:19.755Z,17.30
2018-12-20T01:39:50.618Z,18.75
2018-12-20T01:42:21.246Z,18.35
2018-12-20T01:44:53.590Z,18.67
2018-12-20T01:47:24.425Z,19.30
2018-12-20T01:49:54.955Z,18.85
2018-12-20T01:52:25.513Z,17.63
2018-12-20T01:58:28.176Z,17.67
2018-12-20T02:00:58.992Z,18.05
2018-12-20T02:03:29.650Z,17.20
2018-12-20T02:06:00.403Z,19.10
2018-12-20T02:08:30.930Z,17.60
2018-12-20T02:11:01.665Z,18.35
2018-12-20T02:13:32.343Z,17.70
2018-12-20T02:16:02.907Z,18.10
2018-12-20T02:18:33.485Z,17.55
2018-12-20T02:21:04.076Z,19.40
2018-12-20T02:23:34.870Z,18.37
2018-12-20T02:26:05.526Z,18.63
2018-12-20T02:28:36.304Z,17.95
2018-12-20T02:31:07.139Z,17.73
2018-12-20T02:33:38.013Z,18.53
2018-12-20T02:36:08.843Z,18.48
2018-12-20T02:38:39.518Z,18.37
2018-12-20T02:41:10.153Z,18.37
2018-12-20T02:43:40.883Z,19.13
2018-12-20T02:46:11.549Z,18.80
2018-12-20T02:48:42.353Z,18.85
2018-12-20T02:51:13.104Z,16.95
2018-12-20T02:53:43.813Z,17.82
2018-12-20T02:56:14.398Z,19.03
2018-12-20T02:58:45.065Z,18.20
2018-12-20T03:01:15.805Z,17.77
2018-12-20T03:03:46.760Z,17.97
2018-12-20T03:06:17.540Z,18.93
2018-12-20T03:08:48.467Z,19.13
2018-12-20T03:11:19.070Z,18.77
2018-12-20T03:13:49.666Z,18.62
2018-12-20T03:16:20.313Z,18.70
2018-12-20T03:18:51.134Z,18.62
2018-12-20T03:21:22.016Z,18.47
2018-12-20T03:23:52.857Z,17.57
2018-12-20T03:26:23.457Z,19.80
2018-12-20T03:28:54.094Z,18.73
2018-12-20T03:31:24.625Z,18.40
2018-12-20T03:33:55.236Z,19.17
2018-12-20T03:36:26.799Z,19.15
2018-12-20T03:38:57.320Z,20.08
2018-12-20T03:41:27.840Z,19.13
2018-12-20T03:43:58.464Z,19.23
2018-12-20T03:46:29.181Z,18.80
2018-12-20T03:52:06.198Z,16.55
2018-12-20T03:54:36.636Z,16.02
2018-12-20T03:57:07.170Z,13.00
2018-12-20T03:59:37.997Z,14.17
2018-12-20T04:02:08.489Z,16.13
2018-12-20T04:04:39.098Z,17.33
2018-12-20T04:07:09.797Z,18.37
2018-12-20T04:09:41.289Z,18.90
2018-12-20T04:12:11.873Z,17.93
2018-12-20T04:14:42.571Z,20.10
2018-12-20T04:17:13.702Z,19.57
2018-12-20T04:19:44.179Z,19.27
2018-12-20T04:22:14.834Z,19.93
2018-12-20T04:24:45.783Z,21.65
2018-12-20T04:27:16.811Z,20.87
2018-12-20T04:29:47.664Z,21.07
2018-12-20T04:32:18.325Z,20.15
2018-12-20T04:34:49.567Z,19.63
2018-12-20T04:37:20.294Z,20.75
2018-12-20T04:39:51.361Z,19.80
2018-12-20T04:42:22.315Z,19.95
2018-12-20T04:44:52.987Z,20.93
2018-12-20T04:47:23.632Z,19.27
2018-12-20T04:49:54.926Z,20.62
2018-12-20T04:52:26.007Z,20.73
2018-12-20T04:54:57.480Z,19.77
2018-12-20T04:57:28.263Z,19.35
2018-12-20T04:59:59.528Z,20.97
2018-12-20T05:02:30.291Z,20.40
2018-12-20T05:05:01.039Z,20.92
2018-12-20T05:07:31.776Z,20.80
2018-12-20T05:10:02.547Z,20.90
2018-12-20T05:12:33.252Z,20.83
2018-12-20T05:15:04.022Z,20.68
2018-12-20T05:17:34.618Z,18.98
2018-12-20T05:20:05.813Z,21.20
2018-12-20T05:22:36.503Z,21.00
2018-12-20T05:25:07.411Z,20.30
2018-12-20T05:27:37.900Z,20.27
2018-12-20T05:30:09.835Z,20.30
2018-12-20T05:32:40.618Z,21.30
2018-12-20T05:35:11.566Z,19.55
2018-12-20T05:37:42.554Z,20.93
2018-12-20T05:40:13.321Z,22.17
2018-12-20T05:42:44.047Z,22.00
2018-12-20T05:45:15.250Z,20.20
2018-12-20T05:47:45.895Z,18.82
2018-12-20T05:50:16.625Z,20.23
2018-12-20T05:52:47.093Z,19.52
2018-12-20T05:55:17.630Z,19.97
2018-12-20T05:57:48.176Z,20.37
2018-12-20T06:00:18.736Z,19.65
2018-12-20T06:02:49.580Z,20.67
2018-12-20T06:05:20.325Z,20.87
2018-12-20T06:07:51.880Z,21.87
2018-12-20T06:10:22.589Z,18.97
2018-12-20T06:12:53.559Z,21.43
2018-12-20T06:15:24.199Z,21.10
2018-12-20T06:17:55.168Z,21.43
2018-12-20T06:20:26.243Z,21.70
2018-12-20T06:22:57.670Z,20.17
2018-12-20T06:25:28.406Z,20.83
2018-12-20T06:27:59.221Z,20.97
2018-12-20T06:30:29.796Z,22.13
2018-12-20T06:33:00.521Z,20.88
2018-12-20T06:35:32.271Z,20.27
2018-12-20T06:38:02.848Z,19.62
2018-12-20T06:40:33.545Z,20.10
2018-12-20T06:43:04.530Z,21.30
2018-12-20T06:45:35.276Z,20.88
2018-12-20T06:48:06.081Z,20.83
2018-12-20T06:50:36.700Z,20.82
2018-12-20T06:53:07.402Z,22.13
2018-12-20T06:55:38.673Z,19.33
2018-12-20T06:58:09.865Z,21.55
2018-12-20T07:00:40.438Z,21.87
2018-12-20T07:03:10.968Z,23.00
2018-12-20T07:05:42.787Z,22.37
2018-12-20T07:08:13.329Z,23.02
2018-12-20T07:10:44.159Z,21.97
2018-12-20T07:13:15.774Z,21.97
2018-12-20T07:15:46.743Z,22.73
2018-12-20T07:18:17.550Z,22.60
2018-12-20T07:21:16.095Z,21.42
2018-12-20T07:24:14.538Z,22.22
2018-12-20T07:26:45.083Z,21.73
2018-12-20T07:29:16.264Z,22.40
2018-12-20T07:31:46.875Z,23.32
2018-12-20T07:34:17.580Z,22.93
2018-12-20T07:36:48.610Z,22.63
2018-12-20T07:39:19.981Z,21.50
2018-12-20T07:41:51.760Z,21.20
2018-12-20T07:44:22.744Z,20.92
2018-12-20T07:46:54.283Z,21.83
2018-12-20T07:49:26.204Z,21.77
2018-12-20T07:51:56.935Z,23.00
2018-12-20T07:54:27.970Z,22.50
2018-12-20T07:56:58.713Z,22.50
2018-12-20T07:59:29.373Z,22.30
2018-12-20T08:02:00.133Z,22.60
2018-12-20T08:04:31.105Z,17.90
2018-12-20T08:07:02.048Z,22.60
2018-12-20T08:09:32.987Z,22.27
2018-12-20T08:12:03.935Z,22.73
2018-12-20T08:14:34.589Z,21.85
2018-12-20T08:17:06.068Z,22.67
2018-12-20T08:19:36.918Z,21.85
2018-12-20T08:22:08.023Z,23.00
2018-12-20T08:24:39.682Z,22.20
2018-12-20T08:27:10.557Z,21.50
2018-12-20T08:29:41.167Z,24.27
2018-12-20T08:32:12.376Z,22.82
2018-12-20T08:34:43.099Z,22.83
2018-12-20T08:37:13.917Z,21.63
2018-12-20T08:39:44.719Z,21.23
2018-12-20T08:42:16.205Z,23.00
2018-12-20T08:44:46.938Z,23.00
2018-12-20T08:47:18.024Z,21.03
2018-12-20T08:49:48.713Z,22.33
2018-12-20T08:52:20.837Z,22.57
2018-12-20T08:54:52.537Z,24.85
2018-12-20T08:57:23.575Z,25.48
2018-12-20T08:59:54.443Z,25.97
2018-12-20T09:02:27.817Z,24.35
2018-12-20T14:01:14.877Z,24.30
2018-12-20T14:39:55.118Z,26.42
2018-12-20T14:42:48.767Z,26.12
2018-12-20T14:45:25.136Z,24.98
2018-12-20T14:47:55.820Z,25.95
2018-12-20T14:50:26.640Z,26.48
2018-12-20T14:52:57.181Z,24.43
2018-12-20T14:55:27.855Z,24.00
2018-12-20T14:58:24.004Z,25.50
2018-12-20T15:00:58.903Z,23.70
2018-12-20T15:03:29.897Z,25.00
2018-12-20T15:06:00.787Z,24.90
2018-12-20T15:08:31.407Z,26.33
2018-12-20T15:11:10.074Z,23.90
2018-12-20T15:14:09.339Z,25.37
2018-12-20T15:16:39.939Z,25.50
2018-12-20T15:19:14.922Z,25.92
2018-12-20T15:21:49.162Z,24.85
2018-12-20T15:24:20.163Z,22.70
2018-12-20T15:26:51.304Z,27.13
2018-12-20T15:29:23.294Z,25.87
2018-12-20T15:32:00.251Z,25.45
2018-12-20T15:34:39.223Z,25.88
2018-12-20T15:47:02.279Z,24.35
2018-12-20T15:49:41.751Z,24.45
2018-12-20T15:52:07.967Z,24.97
2018-12-20T15:54:38.733Z,25.03
2018-12-20T15:57:09.384Z,23.85
2018-12-20T15:59:48.690Z,24.70
2018-12-20T16:02:20.396Z,24.73
2018-12-20T16:04:51.417Z,22.20
2018-12-20T16:07:22.135Z,24.35
2018-12-20T16:09:57.239Z,24.00
2018-12-20T16:15:11.551Z,23.00
2018-12-20T16:17:42.320Z,23.62
2018-12-20T16:20:13.877Z,24.52
2018-12-20T16:22:44.698Z,21.23
2018-12-20T16:25:15.752Z,23.18
2018-12-20T16:27:47.312Z,27.35
2018-12-20T16:30:19.693Z,26.57
2018-12-20T16:32:51.596Z,24.63
2018-12-20T16:51:45.542Z,23.05
2018-12-20T16:54:16.227Z,23.45
2018-12-20T16:56:47.206Z,23.02
2018-12-20T16:59:19.113Z,25.08
2018-12-20T17:01:50.140Z,23.32
2018-12-20T17:04:21.421Z,22.52
2018-12-20T17:10:09.617Z,23.18
2018-12-20T17:12:41.415Z,25.15
2018-12-20T17:15:16.104Z,24.77
2018-12-20T17:17:48.693Z,21.87
2018-12-20T17:20:19.748Z,23.57
2018-12-20T17:22:50.791Z,24.72
2018-12-20T17:25:21.811Z,25.82
2018-12-20T17:27:56.598Z,25.37
2018-12-20T17:30:28.918Z,25.07
2018-12-20T17:33:01.322Z,22.75
2018-12-20T17:35:33.565Z,24.10
2018-12-20T17:38:05.318Z,25.77
2018-12-20T17:40:40.742Z,24.37
2018-12-20T17:43:20.213Z,24.35
2018-12-20T17:45:52.586Z,24.25
2018-12-20T17:48:29.011Z,25.03
2018-12-20T17:54:28.044Z,23.83
2018-12-20T18:00:36.859Z,25.37
2018-12-20T18:09:54.339Z,24.60
2018-12-20T18:12:35.565Z,23.62
2018-12-20T18:15:31.908Z,24.45
2018-12-20T18:18:15.652Z,24.43
2018-12-20T18:20:52.286Z,26.33
2018-12-20T18:23:23.456Z,25.35
2018-12-20T18:25:58.224Z,25.57
2018-12-20T18:28:42.283Z,30.97
2018-12-20T18:31:25.280Z,22.52
2018-12-20T18:34:02.973Z,24.47
2018-12-20T18:36:52.968Z,23.35
2018-12-20T18:42:36.138Z,24.52
2018-12-20T18:45:11.386Z,25.15
2018-12-20T18:47:48.172Z,24.65
2018-12-20T18:50:32.611Z,23.00
2018-12-20T18:53:12.348Z,23.65
2018-12-20T18:55:49.892Z,25.57
2018-12-20T19:01:29.975Z,22.52
2018-12-20T19:04:09.739Z,24.15
2018-12-20T19:06:44.197Z,23.85
2018-12-20T19:09:27.237Z,24.35
2018-12-20T19:12:26.039Z,23.53
2018-12-20T19:15:08.546Z,23.70
2018-12-20T19:17:45.439Z,23.12
2018-12-20T19:20:33.122Z,23.97
2018-12-20T19:23:23.143Z,24.67
2018-12-20T19:26:13.767Z,22.75
2018-12-20T19:28:50.297Z,24.90
2018-12-20T19:31:28.385Z,24.43
2018-12-20T19:34:09.574Z,24.85
2018-12-20T19:36:48.208Z,23.77
2018-12-20T19:39:29.376Z,25.72
2018-12-20T19:42:15.399Z,26.45
2018-12-20T19:45:04.548Z,25.48
2018-12-20T19:47:41.109Z,24.92
2018-12-20T19:50:22.216Z,23.85
2018-12-20T19:53:15.894Z,24.95
2018-12-20T19:56:02.383Z,23.92
2018-12-20T20:05:32.025Z,22.32
2018-12-20T20:08:16.607Z,24.23
2018-12-20T20:20:47.189Z,22.87
2018-12-20T20:33:14.181Z,24.15
2018-12-20T20:42:31.581Z,21.82
2018-12-20T20:45:10.388Z,20.88
2018-12-20T20:47:49.846Z,21.70
2018-12-20T20:50:32.631Z,21.30
2018-12-20T20:53:25.234Z,20.20
2018-12-20T20:56:05.010Z,21.40
2018-12-20T21:01:59.314Z,21.48
2018-12-20T21:04:32.914Z,21.15
2018-12-20T21:07:10.661Z,21.55
2018-12-20T21:13:03.441Z,21.60
2018-12-20T21:15:38.195Z,20.52
2018-12-20T21:18:25.980Z,20.77
2018-12-20T21:21:10.326Z,20.68
2018-12-20T21:23:50.910Z,40.73
2018-12-20T21:29:50.853Z,20.60
2018-12-20T21:32:39.179Z,19.52
2018-12-20T21:35:32.232Z,21.55
2018-12-20T21:38:11.068Z,20.48
2018-12-20T21:40:52.219Z,22.30
2018-12-20T21:43:28.833Z,19.73
2018-12-20T21:46:17.812Z,20.62
2018-12-20T21:48:58.295Z,19.37
2018-12-20T21:51:34.744Z,18.50
2018-12-20T21:57:21.634Z,18.60
2018-12-20T22:00:01.272Z,19.40
2018-12-20T22:02:36.817Z,18.98
2018-12-20T22:05:13.830Z,20.80
2018-12-20T22:07:48.105Z,20.27
2018-12-20T22:10:20.779Z,20.95
2018-12-20T22:12:55.203Z,21.77
2018-12-20T22:15:38.957Z,20.97
2018-12-20T22:18:19.292Z,20.20
2018-12-20T22:20:58.088Z,21.75
2018-12-20T22:23:32.385Z,20.88
2018-12-20T22:26:06.349Z,21.05
2018-12-20T22:29:05.672Z,21.45
2018-12-20T22:31:49.268Z,21.83
2018-12-20T22:34:32.569Z,20.02
2018-12-20T22:37:06.945Z,20.82
2018-12-20T22:39:41.549Z,21.73
2018-12-20T22:42:24.571Z,21.35
2018-12-20T22:45:06.691Z,20.75
2018-12-20T22:47:45.741Z,19.60
2018-12-20T22:50:22.004Z,20.50
2018-12-20T22:53:10.998Z,19.57
2018-12-20T22:55:44.676Z,20.75
2018-12-20T22:58:19.520Z,20.15
2018-12-20T23:00:56.281Z,18.52
2018-12-20T23:03:39.194Z,19.30
2018-12-20T23:06:13.264Z,20.12
2018-12-20T23:08:47.493Z,19.50
2018-12-20T23:11:30.469Z,19.60
2018-12-20T23:14:19.210Z,19.48
2018-12-20T23:16:53.772Z,18.30
2018-12-20T23:19:30.202Z,18.05
2018-12-20T23:22:11.343Z,17.85
2018-12-20T23:24:44.155Z,16.75
2018-12-20T23:27:21.370Z,18.10
2018-12-20T23:29:59.285Z,18.92
2018-12-20T23:32:32.234Z,17.87
2018-12-20T23:35:09.303Z,17.60
2018-12-20T23:37:50.142Z,17.65
2018-12-20T23:40:29.067Z,17.15
2018-12-20T23:43:09.841Z,17.48
2018-12-20T23:45:47.381Z,17.00
2018-12-20T23:49:33.411Z,18.62
2018-12-20T23:52:15.845Z,16.42
2018-12-20T23:54:55.968Z,17.85
2018-12-20T23:57:45.215Z,18.35
